Time;durP1;ratioP1;P1;durP2;ratioP2;P2;SDS_P1;SDS_P2;PMS_P1;PMS_P2;Temp;Humidity;BMP_temperature;BMP_pressure;BME280_temperature;BME280_humidity;BME280_pressure;Samples;Min_cycle;Max_cycle;Signal;HPM_P1;HPM_P2
2021/06/11 00:08:12;;;;;;;0.47;0.40;;;23.20;99.90;;;;;;20821456;28;20292;-68
2021/06/11 00:18:18;;;;;;;1.53;1.03;;;23.00;99.90;;;;;;20821240;28;20681;-68
2021/06/11 00:28:24;;;;;;;0.63;0.57;;;23.10;99.90;;;;;;20820938;28;20222;-68
2021/06/11 00:38:27;;;;;;;0.40;0.40;;;23.10;99.90;;;;;;20820034;28;20687;-69
2021/06/11 00:48:33;;;;;;;0.60;0.53;;;23.50;99.90;;;;;;20819058;28;20206;-68
2021/06/11 00:58:36;;;;;;;0.30;0.30;;;23.70;99.90;;;;;;20818075;28;20319;-68
2021/06/11 01:08:43;;;;;;;0.53;0.40;;;23.70;99.90;;;;;;20818717;28;20205;-67
2021/06/11 01:18:46;;;;;;;0.60;0.60;;;23.40;99.90;;;;;;20818355;28;20304;-68
2021/06/11 01:29:02;;;;;;;1.50;1.13;;;23.30;99.90;;;;;;20817414;28;20706;-68
2021/06/11 01:39:14;;;;;;;0.70;0.70;;;23.60;99.90;;;;;;20817581;28;20654;-68
2021/06/11 01:49:21;;;;;;;0.73;0.73;;;23.70;99.90;;;;;;20817305;28;20200;-68
2021/06/11 01:59:24;;;;;;;0.60;0.57;;;23.60;99.90;;;;;;20838587;22;20224;-64
2021/06/11 02:09:29;;;;;;;1.00;0.77;;;23.30;99.90;;;;;;20997751;28;20611;-64
2021/06/11 02:19:34;;;;;;;10.80;0.97;;;23.30;99.90;;;;;;20997117;28;20316;-64
2021/06/11 02:29:39;;;;;;;0.43;0.43;;;23.00;99.90;;;;;;20995809;28;20193;-65
2021/06/11 02:39:42;;;;;;;4.00;1.07;;;22.90;99.90;;;;;;20995537;28;20259;-64
2021/06/11 02:49:54;;;;;;;0.57;0.57;;;22.60;99.90;;;;;;20977164;28;20552;-64
2021/06/11 03:00:04;;;;;;;0.70;0.50;;;22.30;99.90;;;;;;20994269;28;20619;-65
2021/06/11 03:10:10;;;;;;;19.17;1.07;;;22.50;99.90;;;;;;20990264;28;20694;-65
2021/06/11 03:20:18;;;;;;;1.80;0.80;;;22.20;99.90;;;;;;20992233;28;20538;-65
2021/06/11 03:30:24;;;;;;;1.53;0.80;;;22.30;99.90;;;;;;20991699;28;20687;-65
2021/06/11 03:40:35;;;;;;;8.13;0.90;;;22.10;99.90;;;;;;20991082;28;20205;-66
2021/06/11 03:50:42;;;;;;;0.93;0.93;;;22.10;99.90;;;;;;20989354;28;20211;-66
2021/06/11 04:00:51;;;;;;;0.60;0.53;;;22.20;99.90;;;;;;20989430;28;20292;-65
2021/06/11 04:10:58;;;;;;;3.67;1.23;;;22.10;99.90;;;;;;20987775;28;20220;-66
2021/06/11 04:21:02;;;;;;;2.67;1.57;;;22.30;99.90;;;;;;20987369;28;20616;-64
2021/06/11 04:31:07;;;;;;;0.70;0.70;;;22.40;99.90;;;;;;20986368;28;20686;-64
2021/06/11 04:41:13;;;;;;;1.57;1.40;;;22.30;99.90;;;;;;20985267;28;20250;-66
2021/06/11 04:51:21;;;;;;;2.53;1.47;;;22.30;99.90;;;;;;20984754;28;20224;-65
2021/06/11 05:01:25;;;;;;;1.80;1.07;;;22.50;99.90;;;;;;20984331;28;20315;-62
2021/06/11 05:11:29;;;;;;;7.60;1.30;;;22.20;99.90;;;;;;20983936;28;20579;-65
2021/06/11 05:21:33;;;;;;;2.00;0.80;;;22.20;99.90;;;;;;20983654;28;20200;-64
2021/06/11 05:31:42;;;;;;;1.30;1.20;;;22.20;99.90;;;;;;20965035;28;20216;-65
2021/06/11 05:41:45;;;;;;;6.07;1.90;;;22.60;99.90;;;;;;20980697;28;20239;-62
2021/06/11 05:51:50;;;;;;;2.70;1.63;;;23.10;99.90;;;;;;20980484;28;20236;-63
2021/06/11 06:01:53;;;;;;;9.10;1.80;;;23.80;99.90;;;;;;20960129;28;20225;-62
2021/06/11 06:11:57;;;;;;;7.13;1.57;;;23.80;99.90;;;;;;20978643;28;20700;-65
2021/06/11 06:22:01;;;;;;;1.53;0.93;;;23.90;99.90;;;;;;20953588;28;20194;-65
2021/06/11 06:32:06;;;;;;;2.72;2.25;;;24.20;99.90;;;;;;20936140;28;20213;-64
2021/06/11 06:42:11;;;;;;;2.33;1.25;;;24.60;99.90;;;;;;20960588;28;20280;-65
2021/06/11 06:52:16;;;;;;;0.93;0.93;;;25.00;99.90;;;;;;20990877;28;20243;-61
2021/06/11 07:02:19;;;;;;;6.65;1.65;;;24.90;99.90;;;;;;20988750;28;20313;-62
2021/06/11 07:12:26;;;;;;;1.48;1.10;;;25.00;99.90;;;;;;20971759;28;20240;-62
2021/06/11 07:22:30;;;;;;;1.60;1.40;;;25.00;99.90;;;;;;20956756;28;20841;-62
2021/06/11 07:32:34;;;;;;;1.75;1.00;;;24.90;99.90;;;;;;20978148;28;20228;-60
2021/06/11 07:42:38;;;;;;;1.23;1.05;;;25.10;99.90;;;;;;20989873;28;20218;-61
2021/06/11 07:52:43;;;;;;;1.42;1.27;;;25.00;99.90;;;;;;20993207;28;20244;-62
2021/06/11 08:02:46;;;;;;;2.10;1.60;;;25.00;99.90;;;;;;20986195;28;20256;-60
2021/06/11 08:12:50;;;;;;;4.22;2.38;;;25.10;99.90;;;;;;20986339;28;20374;-61
2021/06/11 08:22:55;;;;;;;2.58;1.90;;;25.50;99.90;;;;;;20986857;28;20529;-63
2021/06/11 08:33:00;;;;;;;3.97;1.55;;;26.00;99.90;;;;;;20972703;28;20248;-61
2021/06/11 08:43:03;;;;;;;1.70;1.48;;;26.00;99.90;;;;;;20988032;28;20196;-60
2021/06/11 08:53:08;;;;;;;3.75;1.95;;;26.40;99.90;;;;;;20942896;28;20541;-62
2021/06/11 09:03:18;;;;;;;1.33;1.23;;;26.60;99.90;;;;;;20979258;28;20645;-65
2021/06/11 09:13:26;;;;;;;1.58;1.13;;;26.90;99.90;;;;;;20984111;28;20263;-62
2021/06/11 09:23:29;;;;;;;2.33;1.38;;;27.00;99.90;;;;;;20959958;28;20251;-60
2021/06/11 09:33:42;;;;;;;4.78;1.55;;;27.20;99.90;;;;;;20946030;28;20228;-61
2021/06/11 09:43:55;;;;;;;1.85;1.70;;;27.50;99.90;;;;;;20954588;28;20220;-64
2021/06/11 09:54:20;;;;;;;6.93;1.75;;;27.80;99.90;;;;;;20936525;28;20308;-61
2021/06/11 10:04:23;;;;;;;3.58;1.80;;;28.00;99.90;;;;;;20975112;28;20686;-61
2021/06/11 10:14:32;;;;;;;3.15;2.22;;;28.20;99.90;;;;;;20958571;28;20224;-62
2021/06/11 10:24:35;;;;;;;3.80;2.42;;;28.60;99.90;;;;;;20986189;28;20311;-63
2021/06/11 10:34:51;;;;;;;2.90;2.53;;;28.30;99.90;;;;;;20992555;28;20216;-63
2021/06/11 10:44:56;;;;;;;7.47;3.97;;;29.20;99.90;;;;;;20990061;28;20261;-62
2021/06/11 10:55:48;;;;;;;4.72;3.05;;;29.50;99.90;;;;;;20972129;28;20227;-62
2021/06/11 11:05:51;;;;;;;5.75;3.35;;;29.90;99.90;;;;;;20909044;28;20230;-60
2021/06/11 11:15:57;;;;;;;2.83;2.28;;;29.60;99.90;;;;;;20908471;28;20225;-61
2021/06/11 11:26:01;;;;;;;2.90;2.55;;;30.10;99.90;;;;;;20948402;28;20196;-61
2021/06/11 11:36:07;;;;;;;6.32;2.10;;;31.00;99.90;;;;;;20982417;28;20700;-60
2021/06/11 11:46:10;;;;;;;2.05;1.65;;;30.40;99.90;;;;;;20907300;28;20280;-61
2021/06/11 11:56:15;;;;;;;2.25;1.95;;;29.90;99.90;;;;;;20961978;28;20681;-64
2021/06/11 12:06:18;;;;;;;1.63;1.52;;;31.30;99.90;;;;;;20987078;28;20250;-61
2021/06/11 12:16:22;;;;;;;2.22;1.50;;;31.60;99.90;;;;;;20986751;28;20221;-62
2021/06/11 12:26:26;;;;;;;2.10;1.65;;;31.60;99.90;;;;;;20942637;28;20186;-62
2021/06/11 12:36:30;;;;;;;3.60;2.70;;;31.30;99.90;;;;;;20943725;28;20304;-61
2021/06/11 12:46:34;;;;;;;1.30;1.20;;;31.10;99.90;;;;;;20926078;28;20574;-63
2021/06/11 12:56:40;;;;;;;2.08;1.63;;;30.70;99.90;;;;;;20958124;28;20320;-62
2021/06/11 13:06:44;;;;;;;2.15;1.20;;;30.50;99.90;;;;;;20979855;28;20220;-61
2021/06/11 13:16:48;;;;;;;1.70;1.60;;;32.10;99.90;;;;;;20961448;28;20740;-61
2021/06/11 13:26:51;;;;;;;1.50;1.05;;;34.20;99.90;;;;;;20950345;28;20280;-60
2021/06/11 13:36:57;;;;;;;2.00;1.80;;;32.40;99.90;;;;;;20939980;28;20209;-62
2021/06/11 13:47:00;;;;;;;1.55;1.38;;;31.40;99.90;;;;;;20936908;28;20882;-63
2021/06/11 13:57:05;;;;;;;1.58;1.30;;;30.50;99.90;;;;;;20981275;28;20224;-63
2021/06/11 14:07:08;;;;;;;1.80;1.17;;;32.60;99.90;;;;;;20993226;28;20246;-61
2021/06/11 14:17:13;;;;;;;1.23;1.02;;;34.10;99.90;;;;;;20995152;28;20243;-62
2021/06/11 14:27:17;;;;;;;2.28;1.20;;;34.50;99.90;;;;;;20993940;28;20613;-65
2021/06/11 14:37:22;;;;;;;2.00;1.42;;;34.20;99.90;;;;;;20965586;28;20224;-64
2021/06/11 14:47:25;;;;;;;2.67;1.35;;;35.20;99.90;;;;;;20988428;28;20193;-62
2021/06/11 14:57:31;;;;;;;2.03;1.48;;;35.80;99.90;;;;;;20989272;28;20299;-63
2021/06/11 15:07:37;;;;;;;5.72;1.63;;;35.70;99.90;;;;;;20973641;28;20220;-64
2021/06/11 15:17:45;;;;;;;13.88;2.60;;;36.10;99.90;;;;;;21005166;28;20713;-64
2021/06/11 15:27:48;;;;;;;1.70;1.30;;;35.00;99.90;;;;;;21004341;28;20193;-64
2021/06/11 15:37:53;;;;;;;4.32;2.22;;;35.30;99.90;;;;;;20988659;28;20323;-63
2021/06/11 15:47:56;;;;;;;3.05;1.80;;;35.60;99.90;;;;;;20985836;28;20197;-65
2021/06/11 15:58:01;;;;;;;2.45;2.17;;;35.90;99.90;;;;;;20983971;28;20238;-64
2021/06/11 16:08:04;;;;;;;2.05;1.85;;;35.20;99.90;;;;;;20981605;28;20278;-63
2021/06/11 16:18:09;;;;;;;2.33;1.80;;;35.60;99.90;;;;;;20981284;28;20216;-63
2021/06/11 16:28:12;;;;;;;1.63;1.52;;;35.40;99.90;;;;;;20932567;28;20212;-62
2021/06/11 16:38:20;;;;;;;2.00;1.58;;;32.00;99.90;;;;;;20962624;28;20296;-61
2021/06/11 16:48:23;;;;;;;2.58;1.67;;;34.20;99.90;;;;;;20980986;28;20587;-65
2021/06/11 16:58:28;;;;;;;2.47;1.60;;;31.20;99.90;;;;;;20980128;28;20694;-65
2021/06/11 17:08:31;;;;;;;4.05;1.70;;;32.10;99.90;;;;;;20992485;28;20232;-63
2021/06/11 17:18:35;;;;;;;4.43;2.42;;;33.60;99.90;;;;;;20979219;28;20244;-64
2021/06/11 17:28:39;;;;;;;2.83;2.50;;;33.20;99.90;;;;;;20978175;28;20254;-64
2021/06/11 17:38:45;;;;;;;3.10;1.48;;;32.20;99.90;;;;;;20977485;28;20225;-62
2021/06/11 17:48:48;;;;;;;7.28;4.00;;;33.40;99.90;;;;;;20978143;28;20275;-62
2021/06/11 17:58:55;;;;;;;1.63;1.50;;;32.00;99.90;;;;;;20977311;28;20191;-66
2021/06/11 18:08:59;;;;;;;1.90;1.40;;;31.60;99.90;;;;;;20960951;28;20720;-63
2021/06/11 18:19:06;;;;;;;3.60;1.63;;;30.20;99.90;;;;;;20980213;28;20192;-65
2021/06/11 18:29:09;;;;;;;1.92;1.60;;;30.90;99.90;;;;;;20915033;28;20422;-65
2021/06/11 18:39:14;;;;;;;1.75;1.58;;;29.60;99.90;;;;;;20944837;28;20211;-63
2021/06/11 18:49:18;;;;;;;1.30;1.02;;;29.90;99.90;;;;;;20942173;28;20264;-63
2021/06/11 18:59:27;;;;;;;4.95;1.55;;;29.10;99.90;;;;;;20931155;28;20668;-64
2021/06/11 19:09:33;;;;;;;2.35;1.27;;;27.50;99.90;;;;;;20982001;28;20220;-63
2021/06/11 19:19:41;;;;;;;2.88;1.77;;;27.00;99.90;;;;;;20950187;28;20527;-63
2021/06/11 19:29:45;;;;;;;1.00;0.90;;;26.70;99.90;;;;;;20984271;28;20225;-62
2021/06/11 19:39:50;;;;;;;1.15;1.05;;;26.60;99.90;;;;;;20984394;28;20299;-64
2021/06/11 19:49:57;;;;;;;3.22;1.20;;;26.20;99.90;;;;;;20965886;28;20208;-64
2021/06/11 20:00:13;;;;;;;3.40;1.42;;;25.90;99.90;;;;;;20978420;28;20690;-64
2021/06/11 20:10:16;;;;;;;2.33;2.00;;;25.60;99.90;;;;;;20980058;28;20238;-64
2021/06/11 20:20:21;;;;;;;1.73;1.60;;;25.60;99.90;;;;;;20978844;28;20197;-64
2021/06/11 20:30:24;;;;;;;2.10;1.57;;;25.30;99.90;;;;;;20965221;28;20316;-64
2021/06/11 20:40:29;;;;;;;2.83;1.63;;;24.80;99.90;;;;;;20984217;28;20570;-68
2021/06/11 20:50:33;;;;;;;1.23;1.00;;;25.20;99.90;;;;;;20998645;28;20255;-66
2021/06/11 21:00:38;;;;;;;2.85;1.88;;;25.20;99.90;;;;;;20976462;28;20260;-66
2021/06/11 21:10:42;;;;;;;3.05;1.13;;;25.10;99.90;;;;;;20921314;28;20617;-65
2021/06/11 21:20:50;;;;;;;3.55;2.03;;;25.00;99.90;;;;;;20926490;28;20596;-66
2021/06/11 21:30:53;;;;;;;2.77;1.30;;;24.90;99.90;;;;;;20903402;28;20237;-66
2021/06/11 21:40:58;;;;;;;1.77;1.33;;;24.80;99.90;;;;;;20907350;28;20592;-66
2021/06/11 21:51:02;;;;;;;1.53;1.43;;;24.60;99.90;;;;;;20981785;28;20312;-65
2021/06/11 22:01:08;;;;;;;3.27;1.57;;;24.50;99.90;;;;;;20977263;28;20228;-64
2021/06/11 22:11:13;;;;;;;1.43;1.10;;;24.50;99.90;;;;;;20961699;28;20229;-65
2021/06/11 22:21:18;;;;;;;10.87;1.73;;;24.50;99.90;;;;;;20974388;28;20193;-65
2021/06/11 22:31:21;;;;;;;1.50;1.17;;;24.50;99.90;;;;;;20996855;28;20712;-65
2021/06/11 22:41:26;;;;;;;3.67;1.00;;;24.50;99.90;;;;;;20977220;28;20284;-65
2021/06/11 22:51:29;;;;;;;6.10;1.90;;;24.40;99.90;;;;;;20994979;28;20216;-65
2021/06/11 23:01:34;;;;;;;2.37;0.90;;;24.20;99.90;;;;;;20992628;28;20311;-64
2021/06/11 23:11:37;;;;;;;1.47;1.37;;;23.90;99.90;;;;;;20995884;28;20228;-66
2021/06/11 23:21:42;;;;;;;1.80;1.50;;;23.80;99.90;;;;;;20986169;28;20276;-64
2021/06/11 23:31:51;;;;;;;2.00;0.97;;;23.60;99.90;;;;;;20949671;28;20225;-65
2021/06/11 23:41:56;;;;;;;0.87;0.87;;;23.50;99.90;;;;;;20921772;28;20224;-68
2021/06/11 23:52:00;;;;;;;2.87;1.33;;;23.60;99.90;;;;;;20991641;28;20213;-66
